sensor_id;sensor_type;location;lat;lon;timestamp;temperature;humidity
41882;DHT22;27562;47.524;12.404;2023-05-07T00:01:08;11.30;99.90
41882;DHT22;27562;47.524;12.404;2023-05-07T00:03:34;11.20;99.90
41882;DHT22;27562;47.524;12.404;2023-05-07T00:05:59;11.20;99.90
41882;DHT22;27562;47.524;12.404;2023-05-07T00:08:25;11.20;99.90
41882;DHT22;27562;47.524;12.404;2023-05-07T00:10:51;11.20;99.90
41882;DHT22;27562;47.524;12.404;2023-05-07T00:13:16;11.20;99.90
41882;DHT22;27562;47.524;12.404;2023-05-07T00:15:42;11.20;99.90
41882;DHT22;27562;47.524;12.404;2023-05-07T00:18:08;11.20;99.90
41882;DHT22;27562;47.524;12.404;2023-05-07T00:20:33;11.20;99.90
41882;DHT22;27562;47.524;12.404;2023-05-07T00:22:59;11.10;99.90
41882;DHT22;27562;47.524;12.404;2023-05-07T00:25:25;11.20;99.90
41882;DHT22;27562;47.524;12.404;2023-05-07T00:27:50;11.10;99.90
41882;DHT22;27562;47.524;12.404;2023-05-07T00:30:16;11.20;99.90
41882;DHT22;27562;47.524;12.404;2023-05-07T00:32:42;11.10;99.90
41882;DHT22;27562;47.524;12.404;2023-05-07T00:35:10;11.10;99.90
41882;DHT22;27562;47.524;12.404;2023-05-07T00:37:36;11.10;99.90
41882;DHT22;27562;47.524;12.404;2023-05-07T00:40:02;11.10;99.90
41882;DHT22;27562;47.524;12.404;2023-05-07T00:42:30;11.10;99.90
41882;DHT22;27562;47.524;12.404;2023-05-07T00:44:58;11.10;99.90
41882;DHT22;27562;47.524;12.404;2023-05-07T00:47:24;11.00;99.90
41882;DHT22;27562;47.524;12.404;2023-05-07T00:49:51;11.00;99.90
41882;DHT22;27562;47.524;12.404;2023-05-07T00:52:17;11.00;99.90
41882;DHT22;27562;47.524;12.404;2023-05-07T00:54:45;11.00;99.90
41882;DHT22;27562;47.524;12.404;2023-05-07T00:57:11;10.90;99.90
41882;DHT22;27562;47.524;12.404;2023-05-07T00:59:37;10.90;99.90
41882;DHT22;27562;47.524;12.404;2023-05-07T01:02:03;10.90;99.90
41882;DHT22;27562;47.524;12.404;2023-05-07T01:04:29;10.90;99.90
41882;DHT22;27562;47.524;12.404;2023-05-07T01:06:56;10.90;99.90
41882;DHT22;27562;47.524;12.404;2023-05-07T01:09:24;10.90;99.90
41882;DHT22;27562;47.524;12.404;2023-05-07T01:11:50;10.90;99.90
41882;DHT22;27562;47.524;12.404;2023-05-07T01:14:17;10.90;99.90
41882;DHT22;27562;47.524;12.404;2023-05-07T01:16:43;10.90;99.90
41882;DHT22;27562;47.524;12.404;2023-05-07T01:19:09;10.80;99.90
41882;DHT22;27562;47.524;12.404;2023-05-07T01:21:37;10.90;99.90
41882;DHT22;27562;47.524;12.404;2023-05-07T01:24:04;10.80;99.90
41882;DHT22;27562;47.524;12.404;2023-05-07T01:26:30;10.80;99.90
41882;DHT22;27562;47.524;12.404;2023-05-07T01:28:56;10.80;99.90
41882;DHT22;27562;47.524;12.404;2023-05-07T01:31:23;10.80;99.90
41882;DHT22;27562;47.524;12.404;2023-05-07T01:33:50;10.70;99.90
41882;DHT22;27562;47.524;12.404;2023-05-07T01:36:17;10.70;99.90
41882;DHT22;27562;47.524;12.404;2023-05-07T01:38:44;10.70;99.90
41882;DHT22;27562;47.524;12.404;2023-05-07T01:41:11;10.70;99.90
41882;DHT22;27562;47.524;12.404;2023-05-07T01:43:37;10.70;99.90
41882;DHT22;27562;47.524;12.404;2023-05-07T01:46:03;10.60;99.90
41882;DHT22;27562;47.524;12.404;2023-05-07T01:48:29;10.60;99.90
41882;DHT22;27562;47.524;12.404;2023-05-07T01:50:55;10.60;99.90
41882;DHT22;27562;47.524;12.404;2023-05-07T01:53:21;10.50;99.90
41882;DHT22;27562;47.524;12.404;2023-05-07T01:55:46;10.40;99.90
41882;DHT22;27562;47.524;12.404;2023-05-07T01:58:12;10.30;99.90
41882;DHT22;27562;47.524;12.404;2023-05-07T02:00:38;10.30;99.90
41882;DHT22;27562;47.524;12.404;2023-05-07T02:03:03;10.30;99.90
41882;DHT22;27562;47.524;12.404;2023-05-07T02:05:29;10.20;99.90
41882;DHT22;27562;47.524;12.404;2023-05-07T02:07:55;10.20;99.90
41882;DHT22;27562;47.524;12.404;2023-05-07T02:10:21;10.20;99.90
41882;DHT22;27562;47.524;12.404;2023-05-07T02:12:46;10.20;99.90
41882;DHT22;27562;47.524;12.404;2023-05-07T02:15:12;10.20;99.90
41882;DHT22;27562;47.524;12.404;2023-05-07T02:18:04;10.20;99.90
41882;DHT22;27562;47.524;12.404;2023-05-07T02:20:31;10.20;99.90
41882;DHT22;27562;47.524;12.404;2023-05-07T02:22:57;10.20;99.90
41882;DHT22;27562;47.524;12.404;2023-05-07T02:25:22;10.30;99.90
41882;DHT22;27562;47.524;12.404;2023-05-07T02:27:48;10.20;99.90
41882;DHT22;27562;47.524;12.404;2023-05-07T02:30:14;10.20;99.90
41882;DHT22;27562;47.524;12.404;2023-05-07T02:32:40;10.20;99.90
41882;DHT22;27562;47.524;12.404;2023-05-07T02:35:06;10.10;99.90
41882;DHT22;27562;47.524;12.404;2023-05-07T02:37:32;10.10;99.90
41882;DHT22;27562;47.524;12.404;2023-05-07T02:39:58;10.00;99.90
41882;DHT22;27562;47.524;12.404;2023-05-07T02:42:23;9.90;99.90
41882;DHT22;27562;47.524;12.404;2023-05-07T02:44:49;9.90;99.90
41882;DHT22;27562;47.524;12.404;2023-05-07T02:47:15;9.90;99.90
41882;DHT22;27562;47.524;12.404;2023-05-07T02:49:41;9.80;99.90
41882;DHT22;27562;47.524;12.404;2023-05-07T02:52:07;9.80;99.90
41882;DHT22;27562;47.524;12.404;2023-05-07T02:54:33;9.80;99.90
41882;DHT22;27562;47.524;12.404;2023-05-07T02:56:58;9.80;99.90
41882;DHT22;27562;47.524;12.404;2023-05-07T02:59:26;9.90;99.90
41882;DHT22;27562;47.524;12.404;2023-05-07T03:01:52;9.80;99.90
41882;DHT22;27562;47.524;12.404;2023-05-07T03:04:17;9.90;99.90
41882;DHT22;27562;47.524;12.404;2023-05-07T03:06:43;9.90;99.90
41882;DHT22;27562;47.524;12.404;2023-05-07T03:09:09;9.90;99.90
41882;DHT22;27562;47.524;12.404;2023-05-07T03:11:34;9.90;99.90
41882;DHT22;27562;47.524;12.404;2023-05-07T03:14:01;9.90;99.90
41882;DHT22;27562;47.524;12.404;2023-05-07T03:16:27;9.80;99.90
41882;DHT22;27562;47.524;12.404;2023-05-07T03:18:53;9.80;99.90
41882;DHT22;27562;47.524;12.404;2023-05-07T03:21:18;9.90;99.90
41882;DHT22;27562;47.524;12.404;2023-05-07T03:23:44;9.80;99.90
41882;DHT22;27562;47.524;12.404;2023-05-07T03:26:10;9.80;99.90
41882;DHT22;27562;47.524;12.404;2023-05-07T03:28:36;9.80;99.90
41882;DHT22;27562;47.524;12.404;2023-05-07T03:31:02;9.80;99.90
41882;DHT22;27562;47.524;12.404;2023-05-07T03:33:28;9.80;99.90
41882;DHT22;27562;47.524;12.404;2023-05-07T03:35:53;9.80;99.90
41882;DHT22;27562;47.524;12.404;2023-05-07T03:38:19;9.80;99.90
41882;DHT22;27562;47.524;12.404;2023-05-07T03:40:45;9.80;99.90
41882;DHT22;27562;47.524;12.404;2023-05-07T03:43:11;9.80;99.90
41882;DHT22;27562;47.524;12.404;2023-05-07T03:45:36;9.70;99.90
41882;DHT22;27562;47.524;12.404;2023-05-07T03:48:02;9.70;99.90
41882;DHT22;27562;47.524;12.404;2023-05-07T03:50:28;9.80;99.90
41882;DHT22;27562;47.524;12.404;2023-05-07T03:52:53;9.70;99.90
41882;DHT22;27562;47.524;12.404;2023-05-07T03:55:19;9.70;99.90
41882;DHT22;27562;47.524;12.404;2023-05-07T03:57:45;9.70;99.90
41882;DHT22;27562;47.524;12.404;2023-05-07T04:00:11;9.70;99.90
41882;DHT22;27562;47.524;12.404;2023-05-07T04:02:37;9.60;99.90
41882;DHT22;27562;47.524;12.404;2023-05-07T04:05:03;9.60;99.90
41882;DHT22;27562;47.524;12.404;2023-05-07T04:07:28;9.60;99.90
41882;DHT22;27562;47.524;12.404;2023-05-07T04:09:54;9.60;99.90
41882;DHT22;27562;47.524;12.404;2023-05-07T04:12:20;9.50;99.90
41882;DHT22;27562;47.524;12.404;2023-05-07T04:14:45;9.50;99.90
41882;DHT22;27562;47.524;12.404;2023-05-07T04:17:11;9.50;99.90
41882;DHT22;27562;47.524;12.404;2023-05-07T04:19:37;9.50;99.90
41882;DHT22;27562;47.524;12.404;2023-05-07T04:22:03;9.50;99.90
41882;DHT22;27562;47.524;12.404;2023-05-07T04:24:31;9.50;99.90
41882;DHT22;27562;47.524;12.404;2023-05-07T04:26:58;9.50;99.90
41882;DHT22;27562;47.524;12.404;2023-05-07T04:29:24;9.50;99.90
41882;DHT22;27562;47.524;12.404;2023-05-07T04:31:49;9.50;99.90
41882;DHT22;27562;47.524;12.404;2023-05-07T04:34:15;9.50;99.90
41882;DHT22;27562;47.524;12.404;2023-05-07T04:36:42;9.50;99.90
41882;DHT22;27562;47.524;12.404;2023-05-07T04:39:07;9.50;99.90
41882;DHT22;27562;47.524;12.404;2023-05-07T04:41:35;9.50;99.90
41882;DHT22;27562;47.524;12.404;2023-05-07T04:44:01;9.50;99.90
41882;DHT22;27562;47.524;12.404;2023-05-07T04:46:29;9.50;99.90
41882;DHT22;27562;47.524;12.404;2023-05-07T04:48:55;9.50;99.90
41882;DHT22;27562;47.524;12.404;2023-05-07T04:51:20;9.50;99.90
41882;DHT22;27562;47.524;12.404;2023-05-07T04:53:46;9.50;99.90
41882;DHT22;27562;47.524;12.404;2023-05-07T04:56:12;9.50;99.90
41882;DHT22;27562;47.524;12.404;2023-05-07T04:58:38;9.50;99.90
41882;DHT22;27562;47.524;12.404;2023-05-07T05:01:03;9.50;99.90
41882;DHT22;27562;47.524;12.404;2023-05-07T05:03:30;9.50;99.90
41882;DHT22;27562;47.524;12.404;2023-05-07T05:05:55;9.50;99.90
41882;DHT22;27562;47.524;12.404;2023-05-07T05:08:22;9.50;99.90
41882;DHT22;27562;47.524;12.404;2023-05-07T05:10:48;9.60;99.90
41882;DHT22;27562;47.524;12.404;2023-05-07T05:13:15;9.60;99.90
41882;DHT22;27562;47.524;12.404;2023-05-07T05:15:41;9.70;99.90
41882;DHT22;27562;47.524;12.404;2023-05-07T05:18:06;9.70;99.90
41882;DHT22;27562;47.524;12.404;2023-05-07T05:20:32;9.70;99.90
41882;DHT22;27562;47.524;12.404;2023-05-07T05:22:58;9.80;99.90
41882;DHT22;27562;47.524;12.404;2023-05-07T05:25:24;9.80;99.90
41882;DHT22;27562;47.524;12.404;2023-05-07T05:27:50;9.80;99.90
41882;DHT22;27562;47.524;12.404;2023-05-07T05:30:15;9.90;99.90
41882;DHT22;27562;47.524;12.404;2023-05-07T05:32:41;9.90;99.90
41882;DHT22;27562;47.524;12.404;2023-05-07T05:35:07;10.00;99.90
41882;DHT22;27562;47.524;12.404;2023-05-07T05:37:33;10.00;99.90
41882;DHT22;27562;47.524;12.404;2023-05-07T05:39:58;10.10;99.90
41882;DHT22;27562;47.524;12.404;2023-05-07T05:42:24;10.10;99.90
41882;DHT22;27562;47.524;12.404;2023-05-07T05:44:50;10.20;99.90
41882;DHT22;27562;47.524;12.404;2023-05-07T05:47:16;10.20;99.90
41882;DHT22;27562;47.524;12.404;2023-05-07T05:49:41;10.30;99.90
41882;DHT22;27562;47.524;12.404;2023-05-07T05:52:08;10.30;99.90
41882;DHT22;27562;47.524;12.404;2023-05-07T05:54:34;10.40;99.90
41882;DHT22;27562;47.524;12.404;2023-05-07T05:57:00;10.50;99.90
41882;DHT22;27562;47.524;12.404;2023-05-07T05:59:25;10.60;99.90
41882;DHT22;27562;47.524;12.404;2023-05-07T06:01:51;10.70;99.90
41882;DHT22;27562;47.524;12.404;2023-05-07T06:04:17;10.70;99.90
41882;DHT22;27562;47.524;12.404;2023-05-07T06:06:42;10.70;99.90
41882;DHT22;27562;47.524;12.404;2023-05-07T06:09:08;10.80;99.90
41882;DHT22;27562;47.524;12.404;2023-05-07T06:11:34;10.80;99.90
41882;DHT22;27562;47.524;12.404;2023-05-07T06:13:59;10.90;99.90
41882;DHT22;27562;47.524;12.404;2023-05-07T06:16:25;11.00;99.90
41882;DHT22;27562;47.524;12.404;2023-05-07T06:18:51;11.00;99.90
41882;DHT22;27562;47.524;12.404;2023-05-07T06:21:16;11.20;99.90
41882;DHT22;27562;47.524;12.404;2023-05-07T06:23:42;11.30;99.90
41882;DHT22;27562;47.524;12.404;2023-05-07T06:26:08;11.40;99.90
41882;DHT22;27562;47.524;12.404;2023-05-07T06:28:33;11.60;99.90
41882;DHT22;27562;47.524;12.404;2023-05-07T06:31:15;11.60;99.90
41882;DHT22;27562;47.524;12.404;2023-05-07T06:33:42;11.80;99.90
41882;DHT22;27562;47.524;12.404;2023-05-07T06:36:08;11.90;99.90
41882;DHT22;27562;47.524;12.404;2023-05-07T06:38:33;12.00;99.90
41882;DHT22;27562;47.524;12.404;2023-05-07T06:40:59;12.20;99.90
41882;DHT22;27562;47.524;12.404;2023-05-07T06:43:25;12.30;99.90
41882;DHT22;27562;47.524;12.404;2023-05-07T06:45:50;12.50;99.90
41882;DHT22;27562;47.524;12.404;2023-05-07T06:48:16;12.60;99.90
41882;DHT22;27562;47.524;12.404;2023-05-07T06:50:42;12.80;99.90
41882;DHT22;27562;47.524;12.404;2023-05-07T06:53:07;12.90;99.90
41882;DHT22;27562;47.524;12.404;2023-05-07T06:55:33;13.00;99.90
41882;DHT22;27562;47.524;12.404;2023-05-07T06:57:59;13.10;99.90
41882;DHT22;27562;47.524;12.404;2023-05-07T07:00:27;13.20;99.90
41882;DHT22;27562;47.524;12.404;2023-05-07T07:02:54;13.30;99.90
41882;DHT22;27562;47.524;12.404;2023-05-07T07:05:20;13.40;99.90
41882;DHT22;27562;47.524;12.404;2023-05-07T07:07:46;13.60;99.90
41882;DHT22;27562;47.524;12.404;2023-05-07T07:10:19;13.60;99.90
41882;DHT22;27562;47.524;12.404;2023-05-07T07:12:45;13.80;99.90
41882;DHT22;27562;47.524;12.404;2023-05-07T07:15:10;13.90;99.90
41882;DHT22;27562;47.524;12.404;2023-05-07T07:17:36;14.10;99.90
41882;DHT22;27562;47.524;12.404;2023-05-07T07:20:02;14.20;99.90
41882;DHT22;27562;47.524;12.404;2023-05-07T07:22:28;14.40;99.90
41882;DHT22;27562;47.524;12.404;2023-05-07T07:24:54;14.50;99.90
41882;DHT22;27562;47.524;12.404;2023-05-07T07:27:20;14.60;99.90
41882;DHT22;27562;47.524;12.404;2023-05-07T07:29:46;14.70;99.90
41882;DHT22;27562;47.524;12.404;2023-05-07T07:32:11;14.90;99.90
41882;DHT22;27562;47.524;12.404;2023-05-07T07:34:37;15.00;99.90
41882;DHT22;27562;47.524;12.404;2023-05-07T07:37:03;15.10;99.90
41882;DHT22;27562;47.524;12.404;2023-05-07T07:39:32;15.20;99.90
41882;DHT22;27562;47.524;12.404;2023-05-07T07:41:57;15.30;99.90
41882;DHT22;27562;47.524;12.404;2023-05-07T07:44:23;15.50;99.90
41882;DHT22;27562;47.524;12.404;2023-05-07T07:46:49;15.60;99.90
41882;DHT22;27562;47.524;12.404;2023-05-07T07:49:16;15.70;99.90
41882;DHT22;27562;47.524;12.404;2023-05-07T07:51:42;15.80;99.90
41882;DHT22;27562;47.524;12.404;2023-05-07T07:54:07;15.90;99.90
41882;DHT22;27562;47.524;12.404;2023-05-07T07:56:33;16.00;99.90
41882;DHT22;27562;47.524;12.404;2023-05-07T07:58:59;16.20;99.90
41882;DHT22;27562;47.524;12.404;2023-05-07T08:01:25;16.30;99.90
41882;DHT22;27562;47.524;12.404;2023-05-07T08:03:51;16.40;99.90
41882;DHT22;27562;47.524;12.404;2023-05-07T08:06:17;16.60;99.90
41882;DHT22;27562;47.524;12.404;2023-05-07T08:08:43;16.80;99.90
41882;DHT22;27562;47.524;12.404;2023-05-07T08:11:09;16.90;99.90
41882;DHT22;27562;47.524;12.404;2023-05-07T08:13:36;17.10;99.90
41882;DHT22;27562;47.524;12.404;2023-05-07T08:16:02;17.20;99.90
41882;DHT22;27562;47.524;12.404;2023-05-07T08:18:27;17.30;99.90
41882;DHT22;27562;47.524;12.404;2023-05-07T08:20:54;17.50;99.90
41882;DHT22;27562;47.524;12.404;2023-05-07T08:23:21;17.60;99.90
41882;DHT22;27562;47.524;12.404;2023-05-07T08:25:47;17.70;99.90
41882;DHT22;27562;47.524;12.404;2023-05-07T08:28:13;17.90;99.90
41882;DHT22;27562;47.524;12.404;2023-05-07T08:30:39;18.10;99.90
41882;DHT22;27562;47.524;12.404;2023-05-07T08:33:04;18.20;99.90
41882;DHT22;27562;47.524;12.404;2023-05-07T08:35:30;18.40;99.90
41882;DHT22;27562;47.524;12.404;2023-05-07T08:37:56;18.50;99.90
41882;DHT22;27562;47.524;12.404;2023-05-07T08:40:25;18.60;99.90
41882;DHT22;27562;47.524;12.404;2023-05-07T08:42:53;18.70;99.90
41882;DHT22;27562;47.524;12.404;2023-05-07T08:45:19;18.90;99.90
41882;DHT22;27562;47.524;12.404;2023-05-07T08:47:56;19.00;99.90
41882;DHT22;27562;47.524;12.404;2023-05-07T08:50:23;19.10;99.90
41882;DHT22;27562;47.524;12.404;2023-05-07T08:52:49;19.20;99.90
41882;DHT22;27562;47.524;12.404;2023-05-07T08:55:15;19.30;99.90
41882;DHT22;27562;47.524;12.404;2023-05-07T08:57:41;19.30;99.90
41882;DHT22;27562;47.524;12.404;2023-05-07T09:00:07;19.40;99.90
41882;DHT22;27562;47.524;12.404;2023-05-07T09:02:35;19.50;99.90
41882;DHT22;27562;47.524;12.404;2023-05-07T09:05:02;19.60;99.90
41882;DHT22;27562;47.524;12.404;2023-05-07T09:07:28;19.80;99.90
41882;DHT22;27562;47.524;12.404;2023-05-07T09:09:53;20.00;99.90
41882;DHT22;27562;47.524;12.404;2023-05-07T09:12:22;20.00;99.90
41882;DHT22;27562;47.524;12.404;2023-05-07T09:14:49;20.20;99.90
41882;DHT22;27562;47.524;12.404;2023-05-07T09:17:18;20.30;99.90
41882;DHT22;27562;47.524;12.404;2023-05-07T09:19:44;20.40;99.90
41882;DHT22;27562;47.524;12.404;2023-05-07T09:22:14;20.50;99.90
41882;DHT22;27562;47.524;12.404;2023-05-07T09:24:40;20.60;98.70
41882;DHT22;27562;47.524;12.404;2023-05-07T09:27:06;20.60;99.10
41882;DHT22;27562;47.524;12.404;2023-05-07T09:29:33;20.80;99.90
41882;DHT22;27562;47.524;12.404;2023-05-07T09:32:03;20.90;98.60
41882;DHT22;27562;47.524;12.404;2023-05-07T09:34:30;21.00;97.60
41882;DHT22;27562;47.524;12.404;2023-05-07T09:36:57;21.00;96.90
41882;DHT22;27562;47.524;12.404;2023-05-07T09:39:24;21.10;95.80
41882;DHT22;27562;47.524;12.404;2023-05-07T09:41:50;21.20;96.40
41882;DHT22;27562;47.524;12.404;2023-05-07T09:44:20;21.40;95.60
41882;DHT22;27562;47.524;12.404;2023-05-07T09:46:47;21.50;96.30
41882;DHT22;27562;47.524;12.404;2023-05-07T09:49:21;21.70;95.30
41882;DHT22;27562;47.524;12.404;2023-05-07T09:51:51;21.80;95.30
41882;DHT22;27562;47.524;12.404;2023-05-07T09:54:18;21.90;94.50
41882;DHT22;27562;47.524;12.404;2023-05-07T09:56:45;22.00;94.10
41882;DHT22;27562;47.524;12.404;2023-05-07T09:59:16;21.90;90.20
41882;DHT22;27562;47.524;12.404;2023-05-07T10:01:43;21.90;91.10
41882;DHT22;27562;47.524;12.404;2023-05-07T10:04:10;22.00;91.10
41882;DHT22;27562;47.524;12.404;2023-05-07T10:06:36;22.10;90.00
41882;DHT22;27562;47.524;12.404;2023-05-07T10:09:04;22.10;90.60
41882;DHT22;27562;47.524;12.404;2023-05-07T10:11:36;22.20;90.80
41882;DHT22;27562;47.524;12.404;2023-05-07T10:14:03;22.50;90.20
41882;DHT22;27562;47.524;12.404;2023-05-07T10:16:32;22.60;87.30
41882;DHT22;27562;47.524;12.404;2023-05-07T10:19:03;22.80;89.40
41882;DHT22;27562;47.524;12.404;2023-05-07T10:21:30;22.90;89.40
41882;DHT22;27562;47.524;12.404;2023-05-07T10:24:03;23.20;90.60
41882;DHT22;27562;47.524;12.404;2023-05-07T10:26:31;23.30;85.50
41882;DHT22;27562;47.524;12.404;2023-05-07T10:29:02;23.30;85.60
41882;DHT22;27562;47.524;12.404;2023-05-07T10:33:54;23.50;84.00
41882;DHT22;27562;47.524;12.404;2023-05-07T10:36:21;23.60;81.60
41882;DHT22;27562;47.524;12.404;2023-05-07T10:38:47;23.60;79.70
41882;DHT22;27562;47.524;12.404;2023-05-07T10:41:12;23.70;84.30
41882;DHT22;27562;47.524;12.404;2023-05-07T10:43:42;23.70;78.80
41882;DHT22;27562;47.524;12.404;2023-05-07T10:46:14;23.80;83.40
41882;DHT22;27562;47.524;12.404;2023-05-07T10:51:25;23.90;78.10
41882;DHT22;27562;47.524;12.404;2023-05-07T10:54:18;23.80;78.90
41882;DHT22;27562;47.524;12.404;2023-05-07T10:56:42;23.70;74.30
41882;DHT22;27562;47.524;12.404;2023-05-07T11:01:53;23.50;76.90
41882;DHT22;27562;47.524;12.404;2023-05-07T11:04:19;23.40;75.30
41882;DHT22;27562;47.524;12.404;2023-05-07T11:10:04;23.20;79.10
41882;DHT22;27562;47.524;12.404;2023-05-07T11:15:10;22.80;78.40
41882;DHT22;27562;47.524;12.404;2023-05-07T11:17:56;22.70;81.20
41882;DHT22;27562;47.524;12.404;2023-05-07T11:26:05;22.30;82.30
41882;DHT22;27562;47.524;12.404;2023-05-07T11:28:31;22.20;83.20
41882;DHT22;27562;47.524;12.404;2023-05-07T11:31:01;22.20;81.80
41882;DHT22;27562;47.524;12.404;2023-05-07T11:33:26;22.00;84.80
41882;DHT22;27562;47.524;12.404;2023-05-07T11:35:55;21.80;85.80
41882;DHT22;27562;47.524;12.404;2023-05-07T11:38:21;21.70;85.80
41882;DHT22;27562;47.524;12.404;2023-05-07T11:40:54;21.50;86.30
41882;DHT22;27562;47.524;12.404;2023-05-07T11:43:20;21.40;86.60
41882;DHT22;27562;47.524;12.404;2023-05-07T11:45:46;21.30;89.20
41882;DHT22;27562;47.524;12.404;2023-05-07T11:48:12;21.30;89.50
41882;DHT22;27562;47.524;12.404;2023-05-07T11:50:51;21.30;90.00
41882;DHT22;27562;47.524;12.404;2023-05-07T11:53:18;21.30;89.60
41882;DHT22;27562;47.524;12.404;2023-05-07T11:55:44;21.20;90.70
41882;DHT22;27562;47.524;12.404;2023-05-07T11:58:10;21.10;90.40
41882;DHT22;27562;47.524;12.404;2023-05-07T12:00:36;21.10;90.30
41882;DHT22;27562;47.524;12.404;2023-05-07T12:03:04;21.10;90.80
41882;DHT22;27562;47.524;12.404;2023-05-07T12:05:30;21.10;90.90
41882;DHT22;27562;47.524;12.404;2023-05-07T12:07:56;21.20;91.50
41882;DHT22;27562;47.524;12.404;2023-05-07T12:10:22;21.40;90.90
41882;DHT22;27562;47.524;12.404;2023-05-07T12:12:50;21.60;90.00
41882;DHT22;27562;47.524;12.404;2023-05-07T12:15:16;21.50;89.20
41882;DHT22;27562;47.524;12.404;2023-05-07T12:17:42;21.40;90.30
41882;DHT22;27562;47.524;12.404;2023-05-07T12:20:08;21.40;90.00
41882;DHT22;27562;47.524;12.404;2023-05-07T12:22:35;21.40;90.70
41882;DHT22;27562;47.524;12.404;2023-05-07T12:25:00;21.50;90.50
41882;DHT22;27562;47.524;12.404;2023-05-07T12:27:26;21.50;90.80
41882;DHT22;27562;47.524;12.404;2023-05-07T12:29:51;21.50;91.20
41882;DHT22;27562;47.524;12.404;2023-05-07T12:32:17;21.60;90.60
41882;DHT22;27562;47.524;12.404;2023-05-07T12:34:43;21.80;90.90
41882;DHT22;27562;47.524;12.404;2023-05-07T12:37:09;22.00;91.20
41882;DHT22;27562;47.524;12.404;2023-05-07T12:39:35;22.10;90.30
41882;DHT22;27562;47.524;12.404;2023-05-07T12:42:00;22.10;89.50
41882;DHT22;27562;47.524;12.404;2023-05-07T12:44:30;22.10;89.00
41882;DHT22;27562;47.524;12.404;2023-05-07T12:46:56;22.00;90.00
41882;DHT22;27562;47.524;12.404;2023-05-07T12:49:22;21.90;89.30
41882;DHT22;27562;47.524;12.404;2023-05-07T12:51:48;21.70;90.20
41882;DHT22;27562;47.524;12.404;2023-05-07T12:54:14;21.70;90.70
41882;DHT22;27562;47.524;12.404;2023-05-07T12:56:59;21.80;90.30
41882;DHT22;27562;47.524;12.404;2023-05-07T12:59:38;21.80;90.70
41882;DHT22;27562;47.524;12.404;2023-05-07T13:02:04;21.90;90.90
41882;DHT22;27562;47.524;12.404;2023-05-07T13:04:30;22.00;90.10
41882;DHT22;27562;47.524;12.404;2023-05-07T13:06:55;22.00;90.10
41882;DHT22;27562;47.524;12.404;2023-05-07T13:09:21;22.10;90.10
41882;DHT22;27562;47.524;12.404;2023-05-07T13:11:46;22.20;88.40
41882;DHT22;27562;47.524;12.404;2023-05-07T13:14:12;22.30;90.10
41882;DHT22;27562;47.524;12.404;2023-05-07T13:16:38;22.40;88.60
41882;DHT22;27562;47.524;12.404;2023-05-07T13:19:03;22.30;90.00
41882;DHT22;27562;47.524;12.404;2023-05-07T13:21:29;22.20;90.30
41882;DHT22;27562;47.524;12.404;2023-05-07T13:23:57;22.20;90.00
41882;DHT22;27562;47.524;12.404;2023-05-07T13:26:23;22.20;89.70
41882;DHT22;27562;47.524;12.404;2023-05-07T13:28:49;22.10;90.70
41882;DHT22;27562;47.524;12.404;2023-05-07T13:31:14;22.10;90.90
41882;DHT22;27562;47.524;12.404;2023-05-07T13:33:40;22.00;88.60
41882;DHT22;27562;47.524;12.404;2023-05-07T13:36:05;22.00;89.60
41882;DHT22;27562;47.524;12.404;2023-05-07T13:38:31;22.10;89.10
41882;DHT22;27562;47.524;12.404;2023-05-07T13:40:57;22.10;89.10
41882;DHT22;27562;47.524;12.404;2023-05-07T13:43:22;22.10;87.20
41882;DHT22;27562;47.524;12.404;2023-05-07T13:45:48;22.10;86.90
41882;DHT22;27562;47.524;12.404;2023-05-07T13:48:13;22.10;85.60
41882;DHT22;27562;47.524;12.404;2023-05-07T13:50:39;22.00;84.00
41882;DHT22;27562;47.524;12.404;2023-05-07T13:53:04;21.90;86.10
41882;DHT22;27562;47.524;12.404;2023-05-07T13:55:30;21.90;90.00
41882;DHT22;27562;47.524;12.404;2023-05-07T13:57:57;21.80;90.80
41882;DHT22;27562;47.524;12.404;2023-05-07T14:00:23;21.70;90.90
41882;DHT22;27562;47.524;12.404;2023-05-07T14:02:48;21.50;91.90
41882;DHT22;27562;47.524;12.404;2023-05-07T14:05:14;21.30;93.30
41882;DHT22;27562;47.524;12.404;2023-05-07T14:07:39;21.20;94.70
41882;DHT22;27562;47.524;12.404;2023-05-07T14:10:05;21.00;92.80
41882;DHT22;27562;47.524;12.404;2023-05-07T14:12:31;20.80;88.30
41882;DHT22;27562;47.524;12.404;2023-05-07T14:14:57;20.80;84.20
41882;DHT22;27562;47.524;12.404;2023-05-07T14:17:22;20.70;80.50
41882;DHT22;27562;47.524;12.404;2023-05-07T14:19:50;20.60;82.60
41882;DHT22;27562;47.524;12.404;2023-05-07T14:22:16;20.50;84.20
41882;DHT22;27562;47.524;12.404;2023-05-07T14:24:41;20.30;86.60
41882;DHT22;27562;47.524;12.404;2023-05-07T14:27:07;20.30;86.00
41882;DHT22;27562;47.524;12.404;2023-05-07T14:29:32;20.30;87.30
41882;DHT22;27562;47.524;12.404;2023-05-07T14:31:58;20.30;85.80
41882;DHT22;27562;47.524;12.404;2023-05-07T14:34:23;20.30;87.30
41882;DHT22;27562;47.524;12.404;2023-05-07T14:36:49;20.30;90.10
41882;DHT22;27562;47.524;12.404;2023-05-07T14:39:14;20.30;89.50
41882;DHT22;27562;47.524;12.404;2023-05-07T14:41:40;20.20;90.90
41882;DHT22;27562;47.524;12.404;2023-05-07T14:44:05;20.30;90.30
41882;DHT22;27562;47.524;12.404;2023-05-07T14:46:31;20.30;90.80
41882;DHT22;27562;47.524;12.404;2023-05-07T14:48:57;20.40;91.10
41882;DHT22;27562;47.524;12.404;2023-05-07T14:51:22;20.40;93.40
41882;DHT22;27562;47.524;12.404;2023-05-07T14:53:49;20.30;91.00
41882;DHT22;27562;47.524;12.404;2023-05-07T14:56:15;20.30;91.90
41882;DHT22;27562;47.524;12.404;2023-05-07T14:58:42;20.30;91.40
41882;DHT22;27562;47.524;12.404;2023-05-07T15:01:08;20.30;91.40
41882;DHT22;27562;47.524;12.404;2023-05-07T15:03:34;20.20;94.70
41882;DHT22;27562;47.524;12.404;2023-05-07T15:05:59;20.10;95.70
41882;DHT22;27562;47.524;12.404;2023-05-07T15:08:25;20.00;96.30
41882;DHT22;27562;47.524;12.404;2023-05-07T15:10:51;20.00;96.20
41882;DHT22;27562;47.524;12.404;2023-05-07T15:13:16;20.00;95.60
41882;DHT22;27562;47.524;12.404;2023-05-07T15:15:42;19.90;95.10
41882;DHT22;27562;47.524;12.404;2023-05-07T15:18:10;19.90;96.70
41882;DHT22;27562;47.524;12.404;2023-05-07T15:20:36;19.80;96.50
41882;DHT22;27562;47.524;12.404;2023-05-07T15:23:02;19.70;97.30
41882;DHT22;27562;47.524;12.404;2023-05-07T15:25:30;19.70;97.10
41882;DHT22;27562;47.524;12.404;2023-05-07T15:27:56;19.70;96.90
41882;DHT22;27562;47.524;12.404;2023-05-07T15:30:22;19.70;98.00
41882;DHT22;27562;47.524;12.404;2023-05-07T15:32:47;19.70;99.40
41882;DHT22;27562;47.524;12.404;2023-05-07T15:35:13;19.80;98.80